sensor_id;sensor_type;location;lat;lon;timestamp;P1;durP1;ratioP1;P2;durP2;ratioP2
2994;SDS011;35277;49.890;8.222;2023-02-05T00:01:45;1.20;;;0.97;;
2994;SDS011;35277;49.890;8.222;2023-02-05T00:04:14;1.83;;;1.67;;
2994;SDS011;35277;49.890;8.222;2023-02-05T00:06:42;1.47;;;0.93;;
2994;SDS011;35277;49.890;8.222;2023-02-05T00:09:09;1.10;;;0.60;;
2994;SDS011;35277;49.890;8.222;2023-02-05T00:11:38;1.67;;;0.90;;
2994;SDS011;35277;49.890;8.222;2023-02-05T00:14:05;1.50;;;0.83;;
2994;SDS011;35277;49.890;8.222;2023-02-05T00:16:34;1.00;;;0.50;;
2994;SDS011;35277;49.890;8.222;2023-02-05T00:19:02;1.00;;;0.50;;
2994;SDS011;35277;49.890;8.222;2023-02-05T00:21:31;2.33;;;1.10;;
2994;SDS011;35277;49.890;8.222;2023-02-05T00:23:58;1.40;;;0.90;;
2994;SDS011;35277;49.890;8.222;2023-02-05T00:26:26;1.30;;;0.87;;
2994;SDS011;35277;49.890;8.222;2023-02-05T00:28:54;0.97;;;0.40;;
2994;SDS011;35277;49.890;8.222;2023-02-05T00:31:22;1.47;;;0.97;;
2994;SDS011;35277;49.890;8.222;2023-02-05T00:33:51;1.20;;;0.80;;
2994;SDS011;35277;49.890;8.222;2023-02-05T00:36:19;1.10;;;0.57;;
2994;SDS011;35277;49.890;8.222;2023-02-05T00:38:49;1.23;;;0.70;;
2994;SDS011;35277;49.890;8.222;2023-02-05T00:41:18;1.40;;;0.77;;
2994;SDS011;35277;49.890;8.222;2023-02-05T00:43:45;1.00;;;0.50;;
2994;SDS011;35277;49.890;8.222;2023-02-05T00:46:13;1.20;;;0.80;;
2994;SDS011;35277;49.890;8.222;2023-02-05T00:48:41;1.50;;;0.90;;
2994;SDS011;35277;49.890;8.222;2023-02-05T00:51:09;1.30;;;1.00;;
2994;SDS011;35277;49.890;8.222;2023-02-05T00:53:37;1.00;;;0.50;;
2994;SDS011;35277;49.890;8.222;2023-02-05T00:56:07;1.10;;;0.70;;
2994;SDS011;35277;49.890;8.222;2023-02-05T00:58:35;1.37;;;1.00;;
2994;SDS011;35277;49.890;8.222;2023-02-05T01:01:03;1.00;;;0.60;;
2994;SDS011;35277;49.890;8.222;2023-02-05T01:03:31;1.20;;;0.70;;
2994;SDS011;35277;49.890;8.222;2023-02-05T01:05:59;2.40;;;1.43;;
2994;SDS011;35277;49.890;8.222;2023-02-05T01:08:28;1.40;;;1.00;;
2994;SDS011;35277;49.890;8.222;2023-02-05T01:10:56;1.00;;;0.40;;
2994;SDS011;35277;49.890;8.222;2023-02-05T01:13:26;1.57;;;0.90;;
2994;SDS011;35277;49.890;8.222;2023-02-05T01:15:53;1.30;;;0.87;;
2994;SDS011;35277;49.890;8.222;2023-02-05T01:18:21;0.93;;;0.50;;
2994;SDS011;35277;49.890;8.222;2023-02-05T01:20:49;1.53;;;1.10;;
2994;SDS011;35277;49.890;8.222;2023-02-05T01:23:17;1.00;;;0.53;;
2994;SDS011;35277;49.890;8.222;2023-02-05T01:25:45;1.00;;;0.50;;
2994;SDS011;35277;49.890;8.222;2023-02-05T01:28:13;1.10;;;0.60;;
2994;SDS011;35277;49.890;8.222;2023-02-05T01:30:42;1.20;;;0.80;;
2994;SDS011;35277;49.890;8.222;2023-02-05T01:33:13;1.10;;;0.70;;
2994;SDS011;35277;49.890;8.222;2023-02-05T01:35:41;1.00;;;0.50;;
2994;SDS011;35277;49.890;8.222;2023-02-05T01:38:10;1.20;;;0.63;;
2994;SDS011;35277;49.890;8.222;2023-02-05T01:40:37;1.70;;;1.37;;
2994;SDS011;35277;49.890;8.222;2023-02-05T01:43:08;1.00;;;0.50;;
2994;SDS011;35277;49.890;8.222;2023-02-05T01:45:42;1.00;;;0.50;;
2994;SDS011;35277;49.890;8.222;2023-02-05T01:48:33;1.53;;;0.93;;
2994;SDS011;35277;49.890;8.222;2023-02-05T01:51:05;1.20;;;0.80;;
2994;SDS011;35277;49.890;8.222;2023-02-05T01:53:36;1.00;;;0.50;;
2994;SDS011;35277;49.890;8.222;2023-02-05T01:56:07;1.30;;;0.90;;
2994;SDS011;35277;49.890;8.222;2023-02-05T01:58:39;1.40;;;1.10;;
2994;SDS011;35277;49.890;8.222;2023-02-05T02:01:11;1.60;;;1.43;;
2994;SDS011;35277;49.890;8.222;2023-02-05T02:03:40;1.00;;;0.50;;
2994;SDS011;35277;49.890;8.222;2023-02-05T02:06:08;1.00;;;0.60;;
2994;SDS011;35277;49.890;8.222;2023-02-05T02:08:36;1.00;;;0.60;;
2994;SDS011;35277;49.890;8.222;2023-02-05T02:11:04;1.27;;;0.93;;
2994;SDS011;35277;49.890;8.222;2023-02-05T02:13:33;1.00;;;0.63;;
2994;SDS011;35277;49.890;8.222;2023-02-05T02:16:03;1.30;;;0.67;;
2994;SDS011;35277;49.890;8.222;2023-02-05T02:18:33;0.90;;;0.40;;
2994;SDS011;35277;49.890;8.222;2023-02-05T02:21:18;1.60;;;1.13;;
2994;SDS011;35277;49.890;8.222;2023-02-05T02:24:18;1.50;;;0.80;;
2994;SDS011;35277;49.890;8.222;2023-02-05T02:27:04;1.13;;;0.87;;
2994;SDS011;35277;49.890;8.222;2023-02-05T02:29:45;1.00;;;0.53;;
2994;SDS011;35277;49.890;8.222;2023-02-05T02:32:19;1.20;;;0.70;;
2994;SDS011;35277;49.890;8.222;2023-02-05T02:34:53;1.00;;;0.40;;
2994;SDS011;35277;49.890;8.222;2023-02-05T02:37:29;1.10;;;0.83;;
2994;SDS011;35277;49.890;8.222;2023-02-05T02:40:05;2.33;;;1.07;;
2994;SDS011;35277;49.890;8.222;2023-02-05T02:42:38;1.20;;;1.03;;
2994;SDS011;35277;49.890;8.222;2023-02-05T02:45:13;1.00;;;0.50;;
2994;SDS011;35277;49.890;8.222;2023-02-05T02:47:44;1.20;;;0.80;;
2994;SDS011;35277;49.890;8.222;2023-02-05T02:50:16;1.77;;;0.83;;
2994;SDS011;35277;49.890;8.222;2023-02-05T02:52:47;1.53;;;1.13;;
2994;SDS011;35277;49.890;8.222;2023-02-05T02:55:18;1.30;;;0.60;;
2994;SDS011;35277;49.890;8.222;2023-02-05T02:57:48;1.00;;;0.50;;
2994;SDS011;35277;49.890;8.222;2023-02-05T03:00:21;1.00;;;0.50;;
2994;SDS011;35277;49.890;8.222;2023-02-05T03:02:53;1.33;;;0.70;;
2994;SDS011;35277;49.890;8.222;2023-02-05T03:05:26;1.20;;;0.70;;
2994;SDS011;35277;49.890;8.222;2023-02-05T03:07:57;1.10;;;0.80;;
2994;SDS011;35277;49.890;8.222;2023-02-05T03:10:31;1.37;;;0.97;;
2994;SDS011;35277;49.890;8.222;2023-02-05T03:13:04;1.10;;;0.80;;
2994;SDS011;35277;49.890;8.222;2023-02-05T03:15:33;1.00;;;0.40;;
2994;SDS011;35277;49.890;8.222;2023-02-05T03:18:01;1.30;;;0.90;;
2994;SDS011;35277;49.890;8.222;2023-02-05T03:20:31;1.00;;;0.60;;
2994;SDS011;35277;49.890;8.222;2023-02-05T03:23:02;1.10;;;0.70;;
2994;SDS011;35277;49.890;8.222;2023-02-05T03:25:30;1.00;;;0.40;;
2994;SDS011;35277;49.890;8.222;2023-02-05T03:27:59;1.00;;;0.40;;
2994;SDS011;35277;49.890;8.222;2023-02-05T03:30:32;1.10;;;0.70;;
2994;SDS011;35277;49.890;8.222;2023-02-05T03:33:10;1.83;;;1.10;;
2994;SDS011;35277;49.890;8.222;2023-02-05T03:35:44;1.07;;;0.77;;
2994;SDS011;35277;49.890;8.222;2023-02-05T03:38:22;1.00;;;0.50;;
2994;SDS011;35277;49.890;8.222;2023-02-05T03:41:01;1.27;;;0.63;;
2994;SDS011;35277;49.890;8.222;2023-02-05T03:43:38;1.00;;;0.50;;
2994;SDS011;35277;49.890;8.222;2023-02-05T03:46:16;1.00;;;0.40;;
2994;SDS011;35277;49.890;8.222;2023-02-05T03:48:49;1.00;;;0.80;;
2994;SDS011;35277;49.890;8.222;2023-02-05T03:51:30;1.13;;;0.70;;
2994;SDS011;35277;49.890;8.222;2023-02-05T03:54:08;1.00;;;0.40;;
2994;SDS011;35277;49.890;8.222;2023-02-05T03:56:46;1.10;;;0.50;;
2994;SDS011;35277;49.890;8.222;2023-02-05T03:59:20;1.00;;;0.70;;
2994;SDS011;35277;49.890;8.222;2023-02-05T04:01:51;1.10;;;0.70;;
2994;SDS011;35277;49.890;8.222;2023-02-05T04:04:20;0.90;;;0.50;;
2994;SDS011;35277;49.890;8.222;2023-02-05T04:06:49;1.00;;;0.40;;
2994;SDS011;35277;49.890;8.222;2023-02-05T04:09:19;1.40;;;0.83;;
2994;SDS011;35277;49.890;8.222;2023-02-05T04:11:47;1.10;;;0.50;;
2994;SDS011;35277;49.890;8.222;2023-02-05T04:14:19;1.00;;;0.50;;
2994;SDS011;35277;49.890;8.222;2023-02-05T04:16:47;1.30;;;0.60;;
2994;SDS011;35277;49.890;8.222;2023-02-05T04:19:17;1.00;;;0.40;;
2994;SDS011;35277;49.890;8.222;2023-02-05T04:21:45;1.57;;;0.93;;
2994;SDS011;35277;49.890;8.222;2023-02-05T04:24:13;1.07;;;0.60;;
2994;SDS011;35277;49.890;8.222;2023-02-05T04:26:41;1.00;;;0.50;;
2994;SDS011;35277;49.890;8.222;2023-02-05T04:29:09;1.00;;;0.40;;
2994;SDS011;35277;49.890;8.222;2023-02-05T04:31:42;3.37;;;1.83;;
2994;SDS011;35277;49.890;8.222;2023-02-05T04:34:10;1.63;;;0.70;;
2994;SDS011;35277;49.890;8.222;2023-02-05T04:36:39;1.00;;;0.40;;
2994;SDS011;35277;49.890;8.222;2023-02-05T04:39:07;6.43;;;1.47;;
2994;SDS011;35277;49.890;8.222;2023-02-05T04:41:35;1.00;;;0.50;;
2994;SDS011;35277;49.890;8.222;2023-02-05T04:44:03;1.10;;;0.60;;
2994;SDS011;35277;49.890;8.222;2023-02-05T04:46:31;1.57;;;1.00;;
2994;SDS011;35277;49.890;8.222;2023-02-05T04:48:59;1.40;;;0.73;;
2994;SDS011;35277;49.890;8.222;2023-02-05T04:51:27;2.50;;;0.90;;
2994;SDS011;35277;49.890;8.222;2023-02-05T04:53:56;1.30;;;1.07;;
2994;SDS011;35277;49.890;8.222;2023-02-05T04:56:24;1.00;;;0.70;;
2994;SDS011;35277;49.890;8.222;2023-02-05T04:58:51;0.93;;;0.40;;
2994;SDS011;35277;49.890;8.222;2023-02-05T05:01:20;1.13;;;0.60;;
2994;SDS011;35277;49.890;8.222;2023-02-05T05:03:49;1.00;;;0.60;;
2994;SDS011;35277;49.890;8.222;2023-02-05T05:06:17;1.00;;;0.50;;
2994;SDS011;35277;49.890;8.222;2023-02-05T05:08:45;1.20;;;0.83;;
2994;SDS011;35277;49.890;8.222;2023-02-05T05:11:15;1.10;;;0.77;;
2994;SDS011;35277;49.890;8.222;2023-02-05T05:13:44;1.20;;;0.80;;
2994;SDS011;35277;49.890;8.222;2023-02-05T05:16:14;1.00;;;0.40;;
2994;SDS011;35277;49.890;8.222;2023-02-05T05:18:42;1.10;;;0.73;;
2994;SDS011;35277;49.890;8.222;2023-02-05T05:21:09;1.10;;;0.60;;
2994;SDS011;35277;49.890;8.222;2023-02-05T05:23:38;1.10;;;0.70;;
2994;SDS011;35277;49.890;8.222;2023-02-05T05:26:06;1.17;;;0.97;;
2994;SDS011;35277;49.890;8.222;2023-02-05T05:28:37;1.67;;;1.03;;
2994;SDS011;35277;49.890;8.222;2023-02-05T05:31:05;1.30;;;1.03;;
2994;SDS011;35277;49.890;8.222;2023-02-05T05:33:34;2.40;;;1.37;;
2994;SDS011;35277;49.890;8.222;2023-02-05T05:36:03;1.20;;;0.70;;
2994;SDS011;35277;49.890;8.222;2023-02-05T05:38:31;1.03;;;0.57;;
2994;SDS011;35277;49.890;8.222;2023-02-05T05:40:59;1.33;;;0.50;;
2994;SDS011;35277;49.890;8.222;2023-02-05T05:43:46;1.00;;;0.53;;
2994;SDS011;35277;49.890;8.222;2023-02-05T05:46:15;1.33;;;1.10;;
2994;SDS011;35277;49.890;8.222;2023-02-05T05:48:47;1.03;;;0.73;;
2994;SDS011;35277;49.890;8.222;2023-02-05T05:51:16;1.00;;;0.60;;
2994;SDS011;35277;49.890;8.222;2023-02-05T05:53:45;1.00;;;0.40;;
2994;SDS011;35277;49.890;8.222;2023-02-05T05:56:13;1.33;;;0.97;;
2994;SDS011;35277;49.890;8.222;2023-02-05T05:58:41;1.20;;;0.70;;
2994;SDS011;35277;49.890;8.222;2023-02-05T06:01:11;1.00;;;0.50;;
2994;SDS011;35277;49.890;8.222;2023-02-05T06:03:39;1.20;;;0.80;;
2994;SDS011;35277;49.890;8.222;2023-02-05T06:06:07;1.40;;;0.80;;
2994;SDS011;35277;49.890;8.222;2023-02-05T06:08:38;0.90;;;0.40;;
2994;SDS011;35277;49.890;8.222;2023-02-05T06:11:05;1.10;;;0.67;;
2994;SDS011;35277;49.890;8.222;2023-02-05T06:13:33;0.90;;;0.40;;
2994;SDS011;35277;49.890;8.222;2023-02-05T06:16:01;1.03;;;0.60;;
2994;SDS011;35277;49.890;8.222;2023-02-05T06:18:30;1.00;;;0.70;;
2994;SDS011;35277;49.890;8.222;2023-02-05T06:20:58;1.27;;;0.90;;
2994;SDS011;35277;49.890;8.222;2023-02-05T06:23:27;1.00;;;0.63;;
2994;SDS011;35277;49.890;8.222;2023-02-05T06:25:55;1.20;;;0.80;;
2994;SDS011;35277;49.890;8.222;2023-02-05T06:28:22;1.10;;;0.80;;
2994;SDS011;35277;49.890;8.222;2023-02-05T06:30:50;1.10;;;0.50;;
2994;SDS011;35277;49.890;8.222;2023-02-05T06:33:18;1.10;;;0.70;;
2994;SDS011;35277;49.890;8.222;2023-02-05T06:35:47;1.00;;;0.47;;
2994;SDS011;35277;49.890;8.222;2023-02-05T06:38:15;1.00;;;0.50;;
2994;SDS011;35277;49.890;8.222;2023-02-05T06:40:43;1.10;;;0.70;;
2994;SDS011;35277;49.890;8.222;2023-02-05T06:43:10;1.00;;;0.50;;
2994;SDS011;35277;49.890;8.222;2023-02-05T06:45:38;1.00;;;0.60;;
2994;SDS011;35277;49.890;8.222;2023-02-05T06:48:06;1.23;;;0.97;;
2994;SDS011;35277;49.890;8.222;2023-02-05T06:50:33;1.10;;;0.70;;
2994;SDS011;35277;49.890;8.222;2023-02-05T06:53:03;1.00;;;0.50;;
2994;SDS011;35277;49.890;8.222;2023-02-05T06:55:30;1.07;;;0.80;;
2994;SDS011;35277;49.890;8.222;2023-02-05T06:57:59;5.80;;;0.87;;
2994;SDS011;35277;49.890;8.222;2023-02-05T07:00:26;1.10;;;0.90;;
2994;SDS011;35277;49.890;8.222;2023-02-05T07:02:57;3.00;;;1.73;;
2994;SDS011;35277;49.890;8.222;2023-02-05T07:05:25;2.87;;;1.37;;
2994;SDS011;35277;49.890;8.222;2023-02-05T07:07:53;1.13;;;0.50;;
2994;SDS011;35277;49.890;8.222;2023-02-05T07:10:22;1.00;;;0.50;;
2994;SDS011;35277;49.890;8.222;2023-02-05T07:12:50;1.00;;;0.50;;
2994;SDS011;35277;49.890;8.222;2023-02-05T07:15:18;1.00;;;0.40;;
2994;SDS011;35277;49.890;8.222;2023-02-05T07:17:45;1.20;;;0.80;;
2994;SDS011;35277;49.890;8.222;2023-02-05T07:20:13;1.63;;;1.27;;
2994;SDS011;35277;49.890;8.222;2023-02-05T07:22:41;1.10;;;0.70;;
2994;SDS011;35277;49.890;8.222;2023-02-05T07:25:09;1.20;;;0.70;;
2994;SDS011;35277;49.890;8.222;2023-02-05T07:27:38;1.20;;;0.50;;
2994;SDS011;35277;49.890;8.222;2023-02-05T07:30:06;1.40;;;1.20;;
2994;SDS011;35277;49.890;8.222;2023-02-05T07:32:35;1.30;;;0.70;;
2994;SDS011;35277;49.890;8.222;2023-02-05T07:35:03;1.10;;;0.70;;
2994;SDS011;35277;49.890;8.222;2023-02-05T07:37:31;1.67;;;1.57;;
2994;SDS011;35277;49.890;8.222;2023-02-05T07:39:59;3.43;;;3.13;;
2994;SDS011;35277;49.890;8.222;2023-02-05T07:42:28;3.10;;;2.80;;
2994;SDS011;35277;49.890;8.222;2023-02-05T07:45:00;2.90;;;2.70;;
2994;SDS011;35277;49.890;8.222;2023-02-05T07:47:28;4.37;;;3.40;;
2994;SDS011;35277;49.890;8.222;2023-02-05T07:49:56;2.63;;;2.30;;
2994;SDS011;35277;49.890;8.222;2023-02-05T07:52:24;3.00;;;2.70;;
2994;SDS011;35277;49.890;8.222;2023-02-05T07:54:51;64.23;;;4.23;;
2994;SDS011;35277;49.890;8.222;2023-02-05T07:57:19;3.97;;;3.67;;
2994;SDS011;35277;49.890;8.222;2023-02-05T07:59:47;2.20;;;1.93;;
2994;SDS011;35277;49.890;8.222;2023-02-05T08:02:16;2.57;;;2.40;;
2994;SDS011;35277;49.890;8.222;2023-02-05T08:04:44;3.83;;;3.43;;
2994;SDS011;35277;49.890;8.222;2023-02-05T08:07:12;4.60;;;4.20;;
2994;SDS011;35277;49.890;8.222;2023-02-05T08:09:40;6.07;;;5.57;;
2994;SDS011;35277;49.890;8.222;2023-02-05T08:12:08;4.80;;;2.47;;
2994;SDS011;35277;49.890;8.222;2023-02-05T08:14:35;5.93;;;3.70;;
2994;SDS011;35277;49.890;8.222;2023-02-05T08:17:03;2.23;;;2.03;;
2994;SDS011;35277;49.890;8.222;2023-02-05T08:19:33;2.80;;;2.60;;
2994;SDS011;35277;49.890;8.222;2023-02-05T08:22:01;2.17;;;1.97;;
2994;SDS011;35277;49.890;8.222;2023-02-05T08:24:29;1.83;;;1.60;;
2994;SDS011;35277;49.890;8.222;2023-02-05T08:26:57;2.50;;;2.30;;
2994;SDS011;35277;49.890;8.222;2023-02-05T08:29:25;1.57;;;1.47;;
2994;SDS011;35277;49.890;8.222;2023-02-05T08:31:53;3.87;;;3.57;;
2994;SDS011;35277;49.890;8.222;2023-02-05T08:34:21;3.50;;;2.67;;
2994;SDS011;35277;49.890;8.222;2023-02-05T08:36:50;2.83;;;2.63;;
2994;SDS011;35277;49.890;8.222;2023-02-05T08:39:18;3.47;;;3.20;;
2994;SDS011;35277;49.890;8.222;2023-02-05T08:41:45;12.83;;;4.13;;
2994;SDS011;35277;49.890;8.222;2023-02-05T08:44:13;3.70;;;3.43;;
2994;SDS011;35277;49.890;8.222;2023-02-05T08:46:41;4.73;;;4.33;;
2994;SDS011;35277;49.890;8.222;2023-02-05T08:49:16;2.70;;;2.50;;
2994;SDS011;35277;49.890;8.222;2023-02-05T08:51:44;2.80;;;2.27;;
2994;SDS011;35277;49.890;8.222;2023-02-05T08:54:13;2.70;;;1.73;;
2994;SDS011;35277;49.890;8.222;2023-02-05T08:56:42;2.07;;;1.97;;
2994;SDS011;35277;49.890;8.222;2023-02-05T08:59:11;3.20;;;2.90;;
2994;SDS011;35277;49.890;8.222;2023-02-05T09:01:39;20.47;;;4.40;;
2994;SDS011;35277;49.890;8.222;2023-02-05T09:04:09;3.17;;;2.63;;
2994;SDS011;35277;49.890;8.222;2023-02-05T09:06:39;2.17;;;1.97;;
2994;SDS011;35277;49.890;8.222;2023-02-05T09:09:07;1.83;;;1.73;;
2994;SDS011;35277;49.890;8.222;2023-02-05T09:11:37;2.70;;;2.50;;
2994;SDS011;35277;49.890;8.222;2023-02-05T09:14:05;9.90;;;2.77;;
2994;SDS011;35277;49.890;8.222;2023-02-05T09:16:33;2.63;;;2.07;;
2994;SDS011;35277;49.890;8.222;2023-02-05T09:19:01;3.07;;;2.77;;
2994;SDS011;35277;49.890;8.222;2023-02-05T09:21:29;2.70;;;1.60;;
2994;SDS011;35277;49.890;8.222;2023-02-05T09:23:57;3.30;;;2.20;;
2994;SDS011;35277;49.890;8.222;2023-02-05T09:26:25;9.00;;;2.63;;
2994;SDS011;35277;49.890;8.222;2023-02-05T09:28:54;2.43;;;2.03;;
2994;SDS011;35277;49.890;8.222;2023-02-05T09:31:22;1.90;;;1.70;;
2994;SDS011;35277;49.890;8.222;2023-02-05T09:33:50;1.93;;;1.77;;
2994;SDS011;35277;49.890;8.222;2023-02-05T09:36:21;2.03;;;1.80;;
2994;SDS011;35277;49.890;8.222;2023-02-05T09:38:49;2.90;;;2.70;;
2994;SDS011;35277;49.890;8.222;2023-02-05T09:41:43;4.40;;;3.17;;
2994;SDS011;35277;49.890;8.222;2023-02-05T09:44:22;1.63;;;1.13;;
2994;SDS011;35277;49.890;8.222;2023-02-05T09:46:59;1.67;;;1.03;;
2994;SDS011;35277;49.890;8.222;2023-02-05T09:49:36;2.23;;;2.10;;
2994;SDS011;35277;49.890;8.222;2023-02-05T09:52:10;2.83;;;2.33;;
2994;SDS011;35277;49.890;8.222;2023-02-05T09:54:43;1.77;;;1.30;;
2994;SDS011;35277;49.890;8.222;2023-02-05T09:57:15;3.23;;;2.47;;
2994;SDS011;35277;49.890;8.222;2023-02-05T09:59:47;1.40;;;1.30;;
2994;SDS011;35277;49.890;8.222;2023-02-05T10:02:17;1.87;;;1.77;;
2994;SDS011;35277;49.890;8.222;2023-02-05T10:04:50;1.40;;;1.10;;
2994;SDS011;35277;49.890;8.222;2023-02-05T10:07:28;2.03;;;1.90;;
2994;SDS011;35277;49.890;8.222;2023-02-05T10:12:57;1.53;;;1.43;;
2994;SDS011;35277;49.890;8.222;2023-02-05T10:15:51;1.20;;;0.93;;
2994;SDS011;35277;49.890;8.222;2023-02-05T10:18:26;2.27;;;1.80;;
2994;SDS011;35277;49.890;8.222;2023-02-05T10:21:02;1.43;;;1.33;;
2994;SDS011;35277;49.890;8.222;2023-02-05T10:23:49;2.40;;;2.17;;
2994;SDS011;35277;49.890;8.222;2023-02-05T10:26:30;2.17;;;1.97;;
2994;SDS011;35277;49.890;8.222;2023-02-05T10:29:08;3.50;;;1.10;;
2994;SDS011;35277;49.890;8.222;2023-02-05T10:31:45;2.00;;;1.67;;
2994;SDS011;35277;49.890;8.222;2023-02-05T10:34:24;2.20;;;2.00;;
2994;SDS011;35277;49.890;8.222;2023-02-05T10:37:01;1.87;;;1.50;;
2994;SDS011;35277;49.890;8.222;2023-02-05T10:39:37;4.27;;;1.47;;
2994;SDS011;35277;49.890;8.222;2023-02-05T10:42:05;1.30;;;0.97;;
2994;SDS011;35277;49.890;8.222;2023-02-05T10:44:46;1.60;;;1.43;;
2994;SDS011;35277;49.890;8.222;2023-02-05T10:47:18;2.30;;;1.23;;
2994;SDS011;35277;49.890;8.222;2023-02-05T10:50:02;1.80;;;1.23;;
2994;SDS011;35277;49.890;8.222;2023-02-05T10:52:40;1.60;;;1.47;;
2994;SDS011;35277;49.890;8.222;2023-02-05T10:55:09;1.33;;;1.17;;
2994;SDS011;35277;49.890;8.222;2023-02-05T10:57:38;1.40;;;1.30;;
2994;SDS011;35277;49.890;8.222;2023-02-05T11:00:12;1.27;;;0.90;;
2994;SDS011;35277;49.890;8.222;2023-02-05T11:02:45;1.70;;;1.20;;
2994;SDS011;35277;49.890;8.222;2023-02-05T11:05:18;2.00;;;1.90;;
2994;SDS011;35277;49.890;8.222;2023-02-05T11:07:50;1.20;;;1.00;;
2994;SDS011;35277;49.890;8.222;2023-02-05T11:10:20;5.57;;;3.37;;
2994;SDS011;35277;49.890;8.222;2023-02-05T11:12:51;1.10;;;0.80;;
2994;SDS011;35277;49.890;8.222;2023-02-05T11:15:21;1.30;;;1.10;;
2994;SDS011;35277;49.890;8.222;2023-02-05T11:17:53;2.03;;;1.67;;
2994;SDS011;35277;49.890;8.222;2023-02-05T11:20:27;2.33;;;1.33;;
2994;SDS011;35277;49.890;8.222;2023-02-05T11:23:04;1.20;;;0.90;;
2994;SDS011;35277;49.890;8.222;2023-02-05T11:25:34;1.30;;;0.97;;
2994;SDS011;35277;49.890;8.222;2023-02-05T11:28:02;1.00;;;0.67;;
2994;SDS011;35277;49.890;8.222;2023-02-05T11:30:31;1.30;;;1.00;;
2994;SDS011;35277;49.890;8.222;2023-02-05T11:33:22;5.30;;;1.50;;
2994;SDS011;35277;49.890;8.222;2023-02-05T11:35:53;5.77;;;1.53;;
2994;SDS011;35277;49.890;8.222;2023-02-05T11:38:24;1.20;;;0.97;;
2994;SDS011;35277;49.890;8.222;2023-02-05T11:40:56;4.43;;;1.27;;
2994;SDS011;35277;49.890;8.222;2023-02-05T11:43:26;5.10;;;3.70;;
2994;SDS011;35277;49.890;8.222;2023-02-05T11:45:56;3.67;;;3.37;;
2994;SDS011;35277;49.890;8.222;2023-02-05T11:48:36;38.07;;;5.50;;
2994;SDS011;35277;49.890;8.222;2023-02-05T11:51:07;2.47;;;1.40;;
2994;SDS011;35277;49.890;8.222;2023-02-05T11:53:37;4.03;;;2.27;;
2994;SDS011;35277;49.890;8.222;2023-02-05T11:56:18;14.00;;;3.13;;
2994;SDS011;35277;49.890;8.222;2023-02-05T11:58:57;2.17;;;2.07;;
2994;SDS011;35277;49.890;8.222;2023-02-05T12:01:26;7.13;;;4.03;;
2994;SDS011;35277;49.890;8.222;2023-02-05T12:04:00;10.00;;;3.37;;
2994;SDS011;35277;49.890;8.222;2023-02-05T12:06:31;5.60;;;2.90;;
2994;SDS011;35277;49.890;8.222;2023-02-05T12:09:03;3.30;;;3.00;;
2994;SDS011;35277;49.890;8.222;2023-02-05T12:11:35;2.73;;;2.53;;
2994;SDS011;35277;49.890;8.222;2023-02-05T12:14:28;1.90;;;1.53;;
2994;SDS011;35277;49.890;8.222;2023-02-05T12:17:05;3.20;;;2.90;;
2994;SDS011;35277;49.890;8.222;2023-02-05T12:19:45;3.10;;;2.70;;
2994;SDS011;35277;49.890;8.222;2023-02-05T12:22:25;1.63;;;1.23;;
2994;SDS011;35277;49.890;8.222;2023-02-05T12:25:13;1.50;;;1.23;;
2994;SDS011;35277;49.890;8.222;2023-02-05T12:27:50;3.63;;;2.63;;
2994;SDS011;35277;49.890;8.222;2023-02-05T12:30:35;1.77;;;1.17;;
2994;SDS011;35277;49.890;8.222;2023-02-05T12:33:16;1.40;;;1.10;;
2994;SDS011;35277;49.890;8.222;2023-02-05T12:35:57;1.20;;;0.90;;
2994;SDS011;35277;49.890;8.222;2023-02-05T12:38:41;3.07;;;2.30;;
2994;SDS011;35277;49.890;8.222;2023-02-05T12:41:20;1.87;;;1.67;;
2994;SDS011;35277;49.890;8.222;2023-02-05T12:43:53;3.20;;;1.10;;
2994;SDS011;35277;49.890;8.222;2023-02-05T12:46:34;2.60;;;2.17;;
2994;SDS011;35277;49.890;8.222;2023-02-05T12:49:14;2.90;;;2.30;;
2994;SDS011;35277;49.890;8.222;2023-02-05T12:51:59;1.70;;;1.07;;
2994;SDS011;35277;49.890;8.222;2023-02-05T12:54:50;4.60;;;4.23;;
2994;SDS011;35277;49.890;8.222;2023-02-05T12:57:37;1.93;;;1.77;;
2994;SDS011;35277;49.890;8.222;2023-02-05T13:00:10;1.53;;;1.43;;
2994;SDS011;35277;49.890;8.222;2023-02-05T13:02:44;1.20;;;0.90;;
2994;SDS011;35277;49.890;8.222;2023-02-05T13:05:19;1.47;;;1.37;;
2994;SDS011;35277;49.890;8.222;2023-02-05T13:07:54;1.10;;;0.63;;
2994;SDS011;35277;49.890;8.222;2023-02-05T13:10:30;2.67;;;1.30;;
2994;SDS011;35277;49.890;8.222;2023-02-05T13:13:04;3.17;;;2.07;;
2994;SDS011;35277;49.890;8.222;2023-02-05T13:15:38;12.47;;;1.80;;
2994;SDS011;35277;49.890;8.222;2023-02-05T13:18:10;8.20;;;2.20;;
2994;SDS011;35277;49.890;8.222;2023-02-05T13:20:43;1.93;;;1.73;;
2994;SDS011;35277;49.890;8.222;2023-02-05T13:23:34;2.60;;;2.40;;
2994;SDS011;35277;49.890;8.222;2023-02-05T13:26:23;1.50;;;1.40;;
2994;SDS011;35277;49.890;8.222;2023-02-05T13:29:16;1.77;;;1.50;;
2994;SDS011;35277;49.890;8.222;2023-02-05T13:31:47;1.73;;;1.50;;
2994;SDS011;35277;49.890;8.222;2023-02-05T13:34:18;2.00;;;1.90;;
2994;SDS011;35277;49.890;8.222;2023-02-05T13:42:57;1.10;;;0.90;;
2994;SDS011;35277;49.890;8.222;2023-02-05T13:45:58;2.50;;;2.30;;
2994;SDS011;35277;49.890;8.222;2023-02-05T13:51:54;1.20;;;1.10;;
2994;SDS011;35277;49.890;8.222;2023-02-05T13:54:49;1.23;;;1.00;;
2994;SDS011;35277;49.890;8.222;2023-02-05T13:58:10;1.57;;;1.27;;
2994;SDS011;35277;49.890;8.222;2023-02-05T14:00:49;1.20;;;0.73;;
2994;SDS011;35277;49.890;8.222;2023-02-05T14:03:30;1.20;;;0.77;;
2994;SDS011;35277;49.890;8.222;2023-02-05T14:06:11;1.00;;;0.50;;
2994;SDS011;35277;49.890;8.222;2023-02-05T14:08:46;2.00;;;1.53;;
2994;SDS011;35277;49.890;8.222;2023-02-05T14:11:15;5.40;;;2.00;;
2994;SDS011;35277;49.890;8.222;2023-02-05T14:16:46;1.00;;;0.70;;
2994;SDS011;35277;49.890;8.222;2023-02-05T14:19:17;4.17;;;1.70;;
2994;SDS011;35277;49.890;8.222;2023-02-05T14:21:54;1.00;;;0.50;;
2994;SDS011;35277;49.890;8.222;2023-02-05T14:24:26;2.67;;;0.83;;
2994;SDS011;35277;49.890;8.222;2023-02-05T14:27:18;1.30;;;1.00;;
2994;SDS011;35277;49.890;8.222;2023-02-05T14:33:04;2.70;;;2.00;;
2994;SDS011;35277;49.890;8.222;2023-02-05T14:35:47;3.20;;;1.93;;
2994;SDS011;35277;49.890;8.222;2023-02-05T14:38:15;1.20;;;0.90;;
2994;SDS011;35277;49.890;8.222;2023-02-05T14:40:59;1.10;;;0.90;;
2994;SDS011;35277;49.890;8.222;2023-02-05T14:43:30;2.53;;;2.33;;
2994;SDS011;35277;49.890;8.222;2023-02-05T14:46:02;1.00;;;0.40;;
2994;SDS011;35277;49.890;8.222;2023-02-05T14:48:33;1.07;;;0.70;;
2994;SDS011;35277;49.890;8.222;2023-02-05T14:51:12;1.63;;;1.13;;
2994;SDS011;35277;49.890;8.222;2023-02-05T14:53:52;1.80;;;1.40;;
2994;SDS011;35277;49.890;8.222;2023-02-05T14:56:23;1.10;;;0.80;;
2994;SDS011;35277;49.890;8.222;2023-02-05T14:58:57;1.30;;;1.10;;
2994;SDS011;35277;49.890;8.222;2023-02-05T15:01:41;1.77;;;1.30;;
2994;SDS011;35277;49.890;8.222;2023-02-05T15:04:16;1.63;;;1.23;;
2994;SDS011;35277;49.890;8.222;2023-02-05T15:06:50;1.20;;;0.90;;
2994;SDS011;35277;49.890;8.222;2023-02-05T15:09:20;1.00;;;0.50;;
2994;SDS011;35277;49.890;8.222;2023-02-05T15:11:53;1.90;;;1.80;;
2994;SDS011;35277;49.890;8.222;2023-02-05T15:14:38;1.03;;;0.53;;
2994;SDS011;35277;49.890;8.222;2023-02-05T15:20:23;1.63;;;1.53;;
2994;SDS011;35277;49.890;8.222;2023-02-05T15:22:54;1.30;;;0.60;;
2994;SDS011;35277;49.890;8.222;2023-02-05T15:25:35;2.23;;;0.83;;
2994;SDS011;35277;49.890;8.222;2023-02-05T15:28:07;1.50;;;0.73;;
2994;SDS011;35277;49.890;8.222;2023-02-05T15:30:56;1.00;;;0.60;;
2994;SDS011;35277;49.890;8.222;2023-02-05T15:33:52;1.10;;;0.70;;
2994;SDS011;35277;49.890;8.222;2023-02-05T15:36:25;1.37;;;1.07;;
2994;SDS011;35277;49.890;8.222;2023-02-05T15:39:03;1.00;;;0.67;;
2994;SDS011;35277;49.890;8.222;2023-02-05T15:41:39;1.20;;;0.70;;
2994;SDS011;35277;49.890;8.222;2023-02-05T15:44:18;1.00;;;0.70;;
2994;SDS011;35277;49.890;8.222;2023-02-05T15:46:47;2.10;;;1.90;;
2994;SDS011;35277;49.890;8.222;2023-02-05T15:49:17;1.10;;;0.60;;
2994;SDS011;35277;49.890;8.222;2023-02-05T15:51:51;1.67;;;0.93;;
2994;SDS011;35277;49.890;8.222;2023-02-05T15:54:19;9.30;;;5.30;;